Time;durP1;ratioP1;P1;durP2;ratioP2;P2;SDS_P1;SDS_P2;PMS_P1;PMS_P2;Temp;Humidity;BMP_temperature;BMP_pressure;BME280_temperature;BME280_humidity;BME280_pressure;Samples;Min_cycle;Max_cycle;Signal;HPM_P1;HPM_P2
2023/01/27 06:00:50;;;;;;;20.03;17.93;;;2.40;97.20;;;;;;1728470;28;20615;-70
2023/01/27 06:01:40;;;;;;;21.15;18.15;;;2.40;97.20;;;;;;1727569;28;20671;-70
2023/01/27 06:02:32;;;;;;;20.83;18.63;;;2.40;97.20;;;;;;1727351;28;20539;-69
2023/01/27 06:03:23;;;;;;;21.38;19.10;;;2.40;97.20;;;;;;1725417;28;20208;-70
2023/01/27 06:04:15;;;;;;;21.50;19.30;;;2.40;97.20;;;;;;1727922;28;20207;-70
2023/01/27 06:05:06;;;;;;;19.70;17.60;;;2.40;97.20;;;;;;1728563;28;20200;-71
2023/01/27 06:05:58;;;;;;;21.88;19.58;;;2.40;97.20;;;;;;1728611;28;20684;-70
2023/01/27 06:06:49;;;;;;;20.67;18.48;;;2.40;97.20;;;;;;1728298;28;20212;-70
2023/01/27 06:07:40;;;;;;;21.20;19.00;;;2.40;97.20;;;;;;1728036;28;20193;-70
2023/01/27 06:08:31;;;;;;;25.23;19.27;;;2.40;97.20;;;;;;1728362;28;20204;-70
2023/01/27 06:09:23;;;;;;;21.40;18.43;;;2.40;97.20;;;;;;1728457;28;20207;-70
2023/01/27 06:10:14;;;;;;;21.90;19.58;;;2.40;97.20;;;;;;1728339;28;20454;-70
2023/01/27 06:11:06;;;;;;;22.53;20.10;;;2.40;97.20;;;;;;1728492;28;20204;-70
2023/01/27 06:11:57;;;;;;;21.77;19.48;;;2.40;97.20;;;;;;1728378;28;20454;-70
2023/01/27 06:12:48;;;;;;;20.53;18.33;;;2.40;97.20;;;;;;1728416;28;20215;-70
2023/01/27 06:13:39;;;;;;;21.60;19.23;;;2.40;97.20;;;;;;1728360;28;20204;-70
2023/01/27 06:14:31;;;;;;;20.30;18.20;;;2.40;97.20;;;;;;1728354;28;20204;-70
2023/01/27 06:15:22;;;;;;;21.17;18.98;;;2.40;97.20;;;;;;1728484;28;20442;-70
2023/01/27 06:16:17;;;;;;;22.87;19.97;;;2.40;97.20;;;;;;1728468;28;20195;-70
2023/01/27 06:17:07;;;;;;;21.60;19.17;;;2.40;97.20;;;;;;1728176;28;20723;-70
2023/01/27 06:17:59;;;;;;;22.03;19.73;;;2.40;97.20;;;;;;1728024;28;20208;-71
2023/01/27 06:18:50;;;;;;;22.08;19.77;;;2.40;97.20;;;;;;1728266;28;20232;-70
2023/01/27 06:19:42;;;;;;;23.48;19.25;;;2.40;97.20;;;;;;1727890;28;20199;-71
2023/01/27 06:20:32;;;;;;;22.95;19.95;;;2.40;97.20;;;;;;1728013;28;20217;-70
2023/01/27 06:21:24;;;;;;;21.63;19.43;;;2.40;97.20;;;;;;1728537;28;20209;-70
2023/01/27 06:22:15;;;;;;;22.15;19.80;;;2.40;97.20;;;;;;1729755;28;20235;-70
2023/01/27 06:23:08;;;;;;;21.25;19.05;;;2.40;97.20;;;;;;1735166;28;20238;-70
2023/01/27 06:23:59;;;;;;;23.55;20.08;;;2.40;97.20;;;;;;1734658;28;20227;-70
2023/01/27 06:24:51;;;;;;;22.40;20.00;;;2.50;97.20;;;;;;1734592;28;20214;-70
2023/01/27 06:25:43;;;;;;;25.75;21.70;;;2.40;97.20;;;;;;1734898;28;20206;-70
2023/01/27 06:26:35;;;;;;;23.75;20.40;;;2.40;97.20;;;;;;1735072;28;20227;-70
2023/01/27 06:27:26;;;;;;;22.38;20.05;;;2.40;97.20;;;;;;1734338;28;20200;-70
2023/01/27 06:28:17;;;;;;;23.13;20.33;;;2.40;97.20;;;;;;1735089;28;20200;-70
2023/01/27 06:29:08;;;;;;;24.35;21.75;;;2.40;97.20;;;;;;1735051;28;20215;-70
2023/01/27 06:30:00;;;;;;;23.57;20.70;;;2.40;97.20;;;;;;1735070;28;20200;-70
2023/01/27 06:30:51;;;;;;;24.70;22.02;;;2.40;97.20;;;;;;1734315;28;20258;-70
2023/01/27 06:31:44;;;;;;;24.17;21.67;;;2.50;97.20;;;;;;1734284;28;20231;-70
2023/01/27 06:32:36;;;;;;;25.40;22.70;;;2.50;97.20;;;;;;1734431;28;20685;-70
2023/01/27 06:33:27;;;;;;;23.10;20.70;;;2.50;97.20;;;;;;1735077;28;20203;-70
2023/01/27 06:34:18;;;;;;;24.42;20.55;;;2.40;97.20;;;;;;1735122;28;20242;-71
2023/01/27 06:35:10;;;;;;;23.40;20.90;;;2.50;97.20;;;;;;1735234;28;20207;-70
2023/01/27 06:36:01;;;;;;;22.30;20.00;;;2.50;97.20;;;;;;1728850;28;20494;-70
2023/01/27 06:36:53;;;;;;;23.77;21.17;;;2.50;97.20;;;;;;1727961;28;20196;-71
2023/01/27 06:37:44;;;;;;;23.35;20.13;;;2.50;97.20;;;;;;1727639;28;20256;-72
2023/01/27 06:38:36;;;;;;;23.37;20.87;;;2.50;97.20;;;;;;1727700;28;20201;-72
2023/01/27 06:39:27;;;;;;;21.73;19.35;;;2.50;97.20;;;;;;1728206;28;20196;-72
2023/01/27 06:40:19;;;;;;;23.23;20.63;;;2.40;97.20;;;;;;1728331;28;20202;-72
2023/01/27 06:41:10;;;;;;;22.67;20.17;;;2.40;97.20;;;;;;1728265;28;20582;-72
2023/01/27 06:42:03;;;;;;;22.50;20.10;;;2.40;97.20;;;;;;1728335;28;20224;-71
2023/01/27 06:42:54;;;;;;;23.20;19.55;;;2.40;97.20;;;;;;1728242;28;20447;-72
2023/01/27 06:43:46;;;;;;;22.73;20.33;;;2.40;97.20;;;;;;1727660;28;20207;-72
2023/01/27 06:44:36;;;;;;;22.92;19.30;;;2.40;97.20;;;;;;1721560;28;20212;-72
2023/01/27 06:45:28;;;;;;;22.37;19.97;;;2.40;97.20;;;;;;1721428;28;20221;-72
2023/01/27 06:46:19;;;;;;;24.00;20.55;;;2.40;97.20;;;;;;1721548;28;20205;-71
2023/01/27 06:47:12;;;;;;;23.27;20.63;;;2.40;97.20;;;;;;1720802;28;20319;-72
2023/01/27 06:48:03;;;;;;;21.90;19.48;;;2.40;97.20;;;;;;1721558;28;20212;-72
2023/01/27 06:48:55;;;;;;;22.67;20.23;;;2.40;97.20;;;;;;1721382;28;20294;-72
2023/01/27 06:49:46;;;;;;;22.73;19.48;;;2.40;97.20;;;;;;1721505;28;20210;-71
2023/01/27 06:50:37;;;;;;;23.27;20.53;;;2.40;97.20;;;;;;1721456;28;20240;-72
2023/01/27 06:51:28;;;;;;;25.15;21.02;;;2.40;97.20;;;;;;1722332;28;20202;-71
2023/01/27 06:52:20;;;;;;;22.60;19.87;;;2.40;97.20;;;;;;1721581;28;20193;-71
2023/01/27 06:53:11;;;;;;;23.35;20.27;;;2.40;97.20;;;;;;1721485;28;20574;-71
2023/01/27 06:54:03;;;;;;;22.80;20.33;;;2.40;97.20;;;;;;1723463;28;20209;-72
2023/01/27 06:54:54;;;;;;;24.55;20.05;;;2.40;97.20;;;;;;1725014;28;20673;-72
2023/01/27 06:55:46;;;;;;;22.93;20.00;;;2.40;97.20;;;;;;1721480;28;20570;-72
2023/01/27 06:56:36;;;;;;;23.13;20.55;;;2.40;97.20;;;;;;1721427;28;20209;-72
2023/01/27 06:57:28;;;;;;;22.57;20.27;;;2.40;97.20;;;;;;1721625;28;20241;-71
2023/01/27 06:58:19;;;;;;;22.33;20.00;;;2.40;97.20;;;;;;1724542;28;20201;-71
2023/01/27 06:59:10;;;;;;;22.50;19.87;;;2.40;97.20;;;;;;1727943;28;20211;-71
2023/01/27 07:00:02;;;;;;;23.00;20.50;;;2.40;97.20;;;;;;1727862;28;20576;-71
2023/01/27 07:00:54;;;;;;;22.65;20.25;;;2.40;97.20;;;;;;1727767;28;20698;-71
2023/01/27 07:01:45;;;;;;;23.10;20.00;;;2.40;97.20;;;;;;1728198;28;20216;-71
2023/01/27 07:02:38;;;;;;;22.70;19.40;;;2.40;97.20;;;;;;1728225;28;20279;-71
2023/01/27 07:03:29;;;;;;;20.90;18.73;;;2.40;97.20;;;;;;1728131;28;20201;-73
2023/01/27 07:04:21;;;;;;;21.50;19.27;;;2.40;97.20;;;;;;1726540;28;20189;-72
2023/01/27 07:05:12;;;;;;;23.55;20.23;;;2.40;97.20;;;;;;1721508;28;20201;-72
2023/01/27 07:06:05;;;;;;;23.70;20.70;;;2.40;97.20;;;;;;1723938;28;20621;-72
2023/01/27 07:06:55;;;;;;;21.40;19.17;;;2.40;97.20;;;;;;1727915;28;20215;-72
2023/01/27 07:07:47;;;;;;;23.83;19.93;;;2.40;97.20;;;;;;1726945;28;20195;-72
2023/01/27 07:08:39;;;;;;;22.23;19.80;;;2.40;97.20;;;;;;1727920;28;20579;-72
2023/01/27 07:09:29;;;;;;;21.75;19.08;;;2.40;97.20;;;;;;1728111;28;20213;-71
2023/01/27 07:10:21;;;;;;;27.00;20.97;;;2.40;97.20;;;;;;1723678;28;20280;-72
2023/01/27 07:11:13;;;;;;;22.40;19.40;;;2.40;97.20;;;;;;1723070;28;20193;-72
2023/01/27 07:12:04;;;;;;;21.30;19.00;;;2.40;97.20;;;;;;1727824;28;20562;-72
2023/01/27 07:13:04;;;;;;;21.17;18.58;;;2.40;97.20;;;;;;1728106;28;20673;-70
2023/01/27 07:13:55;;;;;;;20.90;18.35;;;2.40;97.20;;;;;;1728182;28;20258;-71
2023/01/27 07:14:47;;;;;;;20.30;18.20;;;2.40;97.20;;;;;;1727806;28;20224;-71
2023/01/27 07:15:38;;;;;;;21.05;18.85;;;2.40;97.20;;;;;;1728102;28;20204;-71
2023/01/27 07:16:30;;;;;;;21.65;19.35;;;2.40;97.20;;;;;;1728139;28;20602;-71
2023/01/27 07:17:20;;;;;;;22.95;20.45;;;2.40;97.20;;;;;;1727452;28;20200;-71
2023/01/27 07:18:13;;;;;;;22.07;19.63;;;2.40;97.20;;;;;;1728219;28;20208;-72
2023/01/27 07:19:04;;;;;;;22.15;19.60;;;2.40;97.20;;;;;;1728097;28;20204;-71
2023/01/27 07:19:56;;;;;;;20.17;18.07;;;2.40;97.20;;;;;;1728028;28;20196;-71
2023/01/27 07:20:47;;;;;;;21.50;19.17;;;2.40;97.20;;;;;;1727991;28;20228;-72
2023/01/27 07:21:38;;;;;;;22.90;19.30;;;2.40;97.20;;;;;;1727954;28;20196;-71
2023/01/27 07:22:29;;;;;;;22.75;20.40;;;2.40;97.20;;;;;;1727445;28;20207;-71
2023/01/27 07:23:21;;;;;;;22.77;20.37;;;2.40;97.20;;;;;;1727911;28;20203;-71
2023/01/27 07:24:11;;;;;;;22.45;20.05;;;2.40;97.20;;;;;;1728016;28;20259;-71
2023/01/27 07:25:03;;;;;;;21.77;19.17;;;2.50;97.20;;;;;;1728182;28;20646;-71
2023/01/27 07:25:54;;;;;;;23.58;20.95;;;2.50;97.20;;;;;;1725596;28;20204;-71
2023/01/27 07:26:47;;;;;;;23.47;20.83;;;2.50;97.20;;;;;;1720958;28;20197;-71
2023/01/27 07:27:37;;;;;;;22.63;19.60;;;2.50;97.20;;;;;;1721049;28;20255;-71
2023/01/27 07:28:29;;;;;;;23.13;20.37;;;2.50;97.20;;;;;;1721246;28;20243;-71
2023/01/27 07:29:20;;;;;;;22.02;19.73;;;2.40;97.20;;;;;;1721333;28;20689;-72
2023/01/27 07:30:12;;;;;;;23.07;20.57;;;2.50;97.20;;;;;;1721318;28;20689;-71
2023/01/27 07:31:04;;;;;;;22.55;20.00;;;2.50;97.20;;;;;;1721432;28;20215;-71
2023/01/27 07:31:55;;;;;;;25.63;21.25;;;2.50;97.20;;;;;;1721435;28;20205;-71
2023/01/27 07:32:46;;;;;;;22.30;19.90;;;2.50;97.20;;;;;;1721328;28;20669;-71
2023/01/27 07:33:39;;;;;;;24.03;20.30;;;2.50;97.20;;;;;;1721324;28;20201;-71
2023/01/27 07:34:30;;;;;;;23.48;20.95;;;2.50;97.20;;;;;;1721290;28;20201;-71
2023/01/27 07:35:22;;;;;;;22.73;20.30;;;2.50;97.20;;;;;;1727829;28;20196;-71
2023/01/27 07:36:13;;;;;;;23.92;20.50;;;2.50;97.20;;;;;;1727794;28;20196;-71
2023/01/27 07:37:05;;;;;;;22.00;19.70;;;2.50;97.20;;;;;;1728094;28;20197;-71
2023/01/27 07:37:56;;;;;;;27.48;19.88;;;2.50;97.20;;;;;;1727837;28;20240;-71
2023/01/27 07:38:49;;;;;;;23.83;20.85;;;2.50;97.20;;;;;;1728029;28;20662;-71
2023/01/27 07:39:41;;;;;;;21.73;19.33;;;2.50;97.20;;;;;;1728104;28;20277;-71
2023/01/27 07:40:32;;;;;;;22.75;19.52;;;2.50;97.20;;;;;;1727865;28;20231;-71
2023/01/27 07:41:25;;;;;;;23.83;21.30;;;2.60;97.20;;;;;;1728080;28;20200;-70
2023/01/27 07:42:15;;;;;;;22.90;19.83;;;2.60;97.20;;;;;;1728075;28;20566;-71
2023/01/27 07:43:07;;;;;;;22.70;20.30;;;2.60;97.20;;;;;;1728077;28;20742;-71
2023/01/27 07:43:58;;;;;;;21.60;19.30;;;2.60;97.20;;;;;;1728033;28;20209;-71
2023/01/27 07:44:49;;;;;;;23.27;20.77;;;2.60;97.20;;;;;;1727983;28;20254;-71
2023/01/27 07:45:40;;;;;;;22.98;20.48;;;2.60;97.20;;;;;;1728032;28;20584;-71
2023/01/27 07:46:32;;;;;;;24.50;21.50;;;2.60;97.20;;;;;;1727943;28;20200;-71
2023/01/27 07:47:23;;;;;;;23.25;20.70;;;2.60;97.20;;;;;;1727728;28;20200;-71
2023/01/27 07:48:15;;;;;;;23.35;19.38;;;2.60;97.20;;;;;;1727674;28;20223;-72
2023/01/27 07:49:08;;;;;;;21.95;19.55;;;2.60;97.20;;;;;;1721154;28;20259;-72
2023/01/27 07:49:59;;;;;;;22.95;19.98;;;2.60;97.20;;;;;;1721335;28;20489;-71
2023/01/27 07:50:50;;;;;;;22.67;20.17;;;2.60;97.20;;;;;;1721055;28;20233;-71
2023/01/27 07:51:42;;;;;;;22.00;19.60;;;2.60;97.20;;;;;;1721358;28;20205;-71
2023/01/27 07:52:32;;;;;;;21.80;18.60;;;2.70;97.20;;;;;;1721166;28;20579;-71
2023/01/27 07:53:24;;;;;;;20.57;16.97;;;2.70;97.20;;;;;;1721267;28;20562;-72
2023/01/27 07:54:15;;;;;;;18.02;15.98;;;2.70;97.20;;;;;;1721186;28;20205;-71
2023/01/27 07:55:08;;;;;;;18.40;16.50;;;2.70;97.20;;;;;;1721225;28;20200;-71
2023/01/27 07:55:59;;;;;;;18.35;16.33;;;2.70;97.20;;;;;;1721244;28;20548;-71
2023/01/27 07:56:50;;;;;;;17.95;15.52;;;2.70;97.20;;;;;;1721109;28;20205;-71
2023/01/27 07:57:41;;;;;;;18.70;15.55;;;2.70;97.20;;;;;;1720819;28;20209;-71
2023/01/27 07:58:33;;;;;;;19.25;17.00;;;2.70;97.20;;;;;;1721060;28;20201;-71
2023/01/27 07:59:24;;;;;;;17.48;14.90;;;2.70;97.20;;;;;;1721144;28;20216;-71
2023/01/27 08:00:16;;;;;;;19.30;16.50;;;2.70;97.20;;;;;;1721091;28;20681;-71
2023/01/27 08:01:09;;;;;;;18.88;16.88;;;2.70;97.20;;;;;;1721115;28;20208;-71
2023/01/27 08:02:00;;;;;;;18.02;16.13;;;2.80;97.20;;;;;;1721257;28;20264;-71
2023/01/27 08:02:52;;;;;;;20.15;17.13;;;2.80;97.20;;;;;;1721061;28;20204;-71
2023/01/27 08:03:43;;;;;;;18.13;16.23;;;2.80;97.20;;;;;;1721228;28;20639;-72
2023/01/27 08:04:35;;;;;;;17.55;15.75;;;2.80;97.20;;;;;;1724519;28;20196;-72
2023/01/27 08:05:28;;;;;;;17.48;15.65;;;2.80;97.20;;;;;;1727884;28;20258;-71
2023/01/27 08:06:19;;;;;;;17.02;15.23;;;2.80;97.20;;;;;;1727918;28;20585;-72
2023/01/27 08:07:10;;;;;;;16.95;15.20;;;2.80;97.20;;;;;;1727523;28;20205;-71
2023/01/27 08:08:03;;;;;;;16.87;15.17;;;2.80;97.20;;;;;;1727931;28;20199;-71
2023/01/27 08:08:54;;;;;;;17.70;15.90;;;2.80;97.20;;;;;;1727818;28;20208;-71
2023/01/27 08:09:46;;;;;;;16.80;15.00;;;2.80;97.20;;;;;;1728008;28;20197;-72
2023/01/27 08:10:36;;;;;;;18.23;15.73;;;2.80;97.20;;;;;;1727709;28;20501;-71
2023/01/27 08:11:28;;;;;;;21.20;17.03;;;2.80;97.20;;;;;;1727848;28;20207;-71
2023/01/27 08:12:19;;;;;;;19.35;16.42;;;2.80;97.20;;;;;;1727837;28;20212;-71
2023/01/27 08:13:10;;;;;;;18.33;16.40;;;2.80;97.20;;;;;;1727886;28;20201;-72
2023/01/27 08:14:02;;;;;;;18.38;16.38;;;2.80;97.20;;;;;;1727796;28;20205;-71
2023/01/27 08:14:53;;;;;;;16.85;14.98;;;2.80;97.20;;;;;;1727780;28;20650;-71
2023/01/27 08:15:44;;;;;;;19.55;16.60;;;2.80;97.20;;;;;;1727842;28;20215;-71
2023/01/27 08:16:36;;;;;;;16.83;15.13;;;2.80;97.20;;;;;;1727783;28;20206;-71
2023/01/27 08:17:26;;;;;;;18.98;16.00;;;2.80;97.20;;;;;;1727469;28;20451;-71
2023/01/27 08:18:18;;;;;;;19.43;17.30;;;2.80;97.20;;;;;;1727686;28;20226;-71
2023/01/27 08:19:10;;;;;;;17.17;15.43;;;2.80;97.20;;;;;;1727163;28;20211;-71
2023/01/27 08:20:03;;;;;;;17.13;15.32;;;2.80;97.20;;;;;;1726780;28;20698;-71
2023/01/27 08:20:55;;;;;;;16.83;15.13;;;2.80;97.20;;;;;;1721032;28;20225;-71
2023/01/27 08:21:46;;;;;;;15.95;14.30;;;2.80;97.20;;;;;;1721049;28;20291;-71
2023/01/27 08:22:38;;;;;;;17.90;16.10;;;2.80;97.20;;;;;;1721082;28;20655;-72
2023/01/27 08:23:29;;;;;;;17.90;15.57;;;2.80;97.20;;;;;;1721009;28;20200;-72
2023/01/27 08:24:21;;;;;;;18.40;15.52;;;2.80;97.20;;;;;;1721062;28;20263;-71
2023/01/27 08:25:12;;;;;;;18.52;15.95;;;2.80;97.20;;;;;;1721002;28;20205;-71
2023/01/27 08:26:05;;;;;;;18.23;16.03;;;2.80;97.20;;;;;;1721098;28;20203;-71
2023/01/27 08:26:56;;;;;;;16.40;14.45;;;2.80;97.20;;;;;;1720925;28;20577;-72
2023/01/27 08:27:50;;;;;;;14.80;13.30;;;2.80;97.20;;;;;;1720770;28;20250;-71
2023/01/27 08:28:41;;;;;;;14.43;12.93;;;2.80;97.20;;;;;;1720901;28;20255;-71
2023/01/27 08:29:33;;;;;;;14.70;13.10;;;2.80;97.20;;;;;;1721019;28;20208;-72
2023/01/27 08:30:24;;;;;;;16.55;14.95;;;2.80;97.20;;;;;;1720791;28;20946;-71
2023/01/27 08:31:17;;;;;;;15.80;14.20;;;2.80;97.20;;;;;;1721007;28;20208;-71
2023/01/27 08:32:08;;;;;;;16.85;15.05;;;2.80;97.20;;;;;;1720900;28;20208;-71
2023/01/27 08:32:59;;;;;;;16.80;15.00;;;2.80;97.20;;;;;;1720998;28;20228;-71
2023/01/27 08:33:52;;;;;;;17.38;15.57;;;2.80;97.20;;;;;;1720911;28;20201;-71
2023/01/27 08:34:44;;;;;;;17.08;15.27;;;2.80;97.20;;;;;;1720941;28;20204;-71
2023/01/27 08:35:37;;;;;;;17.48;15.68;;;2.90;97.20;;;;;;1720941;28;20555;-71
2023/01/27 08:36:29;;;;;;;17.63;15.82;;;2.90;97.20;;;;;;1726869;28;20196;-71
2023/01/27 08:37:20;;;;;;;17.95;16.05;;;2.90;97.20;;;;;;1727389;28;20201;-71
2023/01/27 08:38:14;;;;;;;19.27;16.10;;;2.90;97.20;;;;;;1727594;28;20228;-71
2023/01/27 08:39:06;;;;;;;18.10;16.17;;;2.90;97.20;;;;;;1727659;28;20205;-71
2023/01/27 08:39:56;;;;;;;18.45;16.45;;;2.90;97.20;;;;;;1727678;28;20244;-71
2023/01/27 08:40:48;;;;;;;18.60;16.43;;;2.90;97.20;;;;;;1727628;28;20216;-71
2023/01/27 08:41:39;;;;;;;17.92;15.80;;;2.90;97.20;;;;;;1727684;28;20662;-71
2023/01/27 08:42:31;;;;;;;17.90;16.00;;;2.90;97.20;;;;;;1727539;28;20578;-71
2023/01/27 08:43:21;;;;;;;18.40;16.50;;;2.90;97.20;;;;;;1727310;28;20200;-71
2023/01/27 08:44:13;;;;;;;18.27;16.23;;;2.90;97.20;;;;;;1727684;28;20207;-71
2023/01/27 08:45:05;;;;;;;17.45;15.65;;;2.90;97.20;;;;;;1727736;28;20211;-72
2023/01/27 08:45:59;;;;;;;18.05;16.15;;;2.90;97.20;;;;;;1727590;28;20546;-71
2023/01/27 08:46:49;;;;;;;16.98;15.13;;;2.90;97.20;;;;;;1727145;28;20232;-72
2023/01/27 08:47:41;;;;;;;17.37;15.47;;;2.90;97.20;;;;;;1727481;28;20204;-71
2023/01/27 08:48:33;;;;;;;17.58;15.75;;;2.90;97.20;;;;;;1727396;28;20200;-72
2023/01/27 08:49:24;;;;;;;17.98;16.08;;;2.90;97.20;;;;;;1727574;28;20232;-71
2023/01/27 08:50:15;;;;;;;16.15;14.43;;;2.90;97.20;;;;;;1727499;28;20208;-71
2023/01/27 08:51:11;;;;;;;17.63;15.77;;;3.00;97.20;;;;;;1727574;28;20232;-71
2023/01/27 08:52:02;;;;;;;18.75;15.77;;;3.00;97.20;;;;;;1727574;28;20447;-71
2023/01/27 08:52:55;;;;;;;15.63;14.03;;;3.00;97.20;;;;;;1727536;28;20200;-72
2023/01/27 08:53:46;;;;;;;15.45;13.85;;;3.00;97.20;;;;;;1727589;28;20211;-71
2023/01/27 08:54:37;;;;;;;16.65;14.90;;;3.00;97.20;;;;;;1727552;28;20201;-71
2023/01/27 08:55:32;;;;;;;17.87;16.00;;;3.00;97.20;;;;;;1727610;28;20200;-71
2023/01/27 08:56:24;;;;;;;17.60;15.80;;;3.00;97.20;;;;;;1727430;28;20639;-72
2023/01/27 08:57:15;;;;;;;15.88;14.25;;;3.00;97.20;;;;;;1726816;28;20255;-71
2023/01/27 08:58:07;;;;;;;16.30;14.17;;;3.00;97.20;;;;;;1727357;28;20200;-72
2023/01/27 08:58:58;;;;;;;17.50;15.70;;;3.00;97.20;;;;;;1727431;28;20243;-71
2023/01/27 08:59:49;;;;;;;21.60;15.98;;;3.00;97.20;;;;;;1726824;28;20203;-71
2023/01/27 09:00:40;;;;;;;17.33;15.45;;;3.10;97.20;;;;;;1722411;28;20283;-71
2023/01/27 09:01:32;;;;;;;16.67;14.97;;;3.10;97.20;;;;;;1727418;28;20204;-71
2023/01/27 09:02:23;;;;;;;17.67;15.77;;;3.10;97.20;;;;;;1727574;28;21108;-71
2023/01/27 09:03:15;;;;;;;20.10;15.25;;;3.10;97.20;;;;;;1727433;28;20618;-71
2023/01/27 09:04:07;;;;;;;16.52;14.57;;;3.10;97.20;;;;;;1727449;28;20208;-71
2023/01/27 09:04:57;;;;;;;15.85;14.23;;;3.10;97.20;;;;;;1727335;28;20200;-71
2023/01/27 09:05:49;;;;;;;16.80;15.10;;;3.10;97.20;;;;;;1727356;28;20203;-71
2023/01/27 09:06:41;;;;;;;16.00;14.30;;;3.20;97.20;;;;;;1727416;28;20240;-72
2023/01/27 09:07:33;;;;;;;16.10;14.40;;;3.20;97.20;;;;;;1726725;28;20212;-72
2023/01/27 09:08:25;;;;;;;15.20;13.60;;;3.10;97.20;;;;;;1726988;28;20632;-72
2023/01/27 09:09:16;;;;;;;15.73;13.48;;;3.10;97.20;;;;;;1727397;28;20617;-71
2023/01/27 09:10:09;;;;;;;16.07;14.37;;;3.10;97.20;;;;;;1727528;28;20788;-73
2023/01/27 09:11:06;;;;;;;16.48;13.95;;;3.10;97.20;;;;;;1727143;28;20232;-71
2023/01/27 09:11:57;;;;;;;16.48;14.20;;;3.10;97.20;;;;;;1727441;28;20658;-72
2023/01/27 09:12:48;;;;;;;15.90;14.23;;;3.10;97.20;;;;;;1727414;28;20215;-72
2023/01/27 09:13:40;;;;;;;16.20;14.50;;;3.10;97.20;;;;;;1727466;28;20199;-72
2023/01/27 09:14:31;;;;;;;16.00;14.02;;;3.10;97.20;;;;;;1727360;28;20231;-71
2023/01/27 09:15:23;;;;;;;15.20;12.60;;;3.10;97.20;;;;;;1727437;28;20199;-71
2023/01/27 09:16:13;;;;;;;15.15;13.63;;;3.10;97.20;;;;;;1726766;28;20217;-71
2023/01/27 09:17:05;;;;;;;14.30;12.80;;;3.10;97.20;;;;;;1727188;28;20282;-71
2023/01/27 09:17:57;;;;;;;15.43;13.80;;;3.10;97.20;;;;;;1726892;28;20200;-71
2023/01/27 09:18:48;;;;;;;14.80;13.32;;;3.10;97.20;;;;;;1726937;28;20220;-71
2023/01/27 09:19:39;;;;;;;16.97;14.10;;;3.10;97.20;;;;;;1727473;28;20200;-71
2023/01/27 09:20:30;;;;;;;18.00;15.50;;;3.10;97.20;;;;;;1727145;28;20208;-71
2023/01/27 09:21:22;;;;;;;16.00;14.30;;;3.10;97.20;;;;;;1727540;28;20200;-72
2023/01/27 09:22:14;;;;;;;16.95;15.15;;;3.10;97.20;;;;;;1727306;28;20212;-71
2023/01/27 09:23:06;;;;;;;18.05;15.02;;;3.10;97.20;;;;;;1727342;28;20208;-71
2023/01/27 09:23:56;;;;;;;16.67;14.88;;;3.10;97.20;;;;;;1727312;28;20204;-72
2023/01/27 09:24:48;;;;;;;17.03;13.80;;;3.20;97.20;;;;;;1727324;28;20210;-71
2023/01/27 09:25:39;;;;;;;15.73;14.07;;;3.20;97.20;;;;;;1727316;28;20200;-71
2023/01/27 09:26:31;;;;;;;16.10;14.40;;;3.20;97.20;;;;;;1727315;28;20207;-71
2023/01/27 09:27:21;;;;;;;14.30;12.40;;;3.30;97.20;;;;;;1726661;28;20675;-71
2023/01/27 09:28:16;;;;;;;15.20;13.13;;;3.30;97.20;;;;;;1727359;28;20208;-71
2023/01/27 09:29:07;;;;;;;14.75;13.25;;;3.30;97.20;;;;;;1726802;28;20579;-71
2023/01/27 09:29:59;;;;;;;14.97;12.67;;;3.30;97.20;;;;;;1727422;28;20655;-72
2023/01/27 09:30:50;;;;;;;14.20;12.70;;;3.30;97.20;;;;;;1726669;28;20239;-71
2023/01/27 09:31:41;;;;;;;16.73;13.60;;;3.40;97.20;;;;;;1724825;28;20602;-71
2023/01/27 09:32:33;;;;;;;14.60;13.10;;;3.40;97.20;;;;;;1720518;28;20655;-71
2023/01/27 09:33:24;;;;;;;15.32;13.73;;;3.40;97.20;;;;;;1720558;28;20700;-71
2023/01/27 09:34:18;;;;;;;13.43;12.02;;;3.40;97.20;;;;;;1720563;28;20197;-71
2023/01/27 09:35:09;;;;;;;14.75;13.10;;;3.40;97.20;;;;;;1720520;28;20240;-71
2023/01/27 09:36:06;;;;;;;14.95;12.95;;;3.40;97.20;;;;;;1724953;28;20670;-72
2023/01/27 09:37:01;;;;;;;13.23;11.93;;;3.40;97.20;;;;;;1727190;28;20551;-71
2023/01/27 09:37:56;;;;;;;14.27;12.75;;;3.40;97.20;;;;;;1726727;28;20208;-72
2023/01/27 09:38:51;;;;;;;14.77;13.27;;;3.40;97.20;;;;;;1726957;28;20753;-71
2023/01/27 09:39:47;;;;;;;14.65;13.10;;;3.30;97.20;;;;;;1727421;28;20224;-72
2023/01/27 09:40:57;;;;;;;15.50;13.63;;;3.30;97.20;;;;;;1727120;28;20220;-71
2023/01/27 09:42:04;;;;;;;15.13;13.52;;;3.30;97.20;;;;;;1727187;28;20208;-72
2023/01/27 09:43:29;;;;;;;13.90;12.40;;;3.30;97.20;;;;;;1726879;28;20270;-71
2023/01/27 09:45:02;;;;;;;15.65;13.82;;;3.30;97.20;;;;;;1704877;29;20751;-71
2023/01/27 09:46:11;;;;;;;18.45;14.70;;;3.30;97.20;;;;;;1725979;28;20205;-72
2023/01/27 09:47:17;;;;;;;16.70;15.00;;;3.30;97.20;;;;;;1725986;28;20562;-72
2023/01/27 09:48:44;;;;;;;15.35;13.32;;;3.30;97.20;;;;;;1720676;28;20201;-71
2023/01/27 09:49:52;;;;;;;15.30;13.77;;;3.20;97.20;;;;;;1720458;28;20208;-71
2023/01/27 09:50:48;;;;;;;15.55;13.95;;;3.20;97.20;;;;;;1721717;28;20249;-71
2023/01/27 09:51:48;;;;;;;17.33;14.65;;;3.20;97.20;;;;;;1727268;28;20200;-70
2023/01/27 09:52:58;;;;;;;16.20;13.82;;;3.20;97.20;;;;;;1727188;28;20204;-71
2023/01/27 09:54:15;;;;;;;17.60;14.05;;;3.20;97.20;;;;;;1727365;28;20559;-71
2023/01/27 09:55:15;;;;;;;16.45;14.75;;;3.20;97.20;;;;;;1725001;28;20632;-72
2023/01/27 09:56:14;;;;;;;15.00;12.93;;;3.20;97.20;;;;;;1727281;28;20197;-71
2023/01/27 09:57:13;;;;;;;16.88;13.80;;;3.20;97.20;;;;;;1727308;28;20215;-71
2023/01/27 09:58:10;;;;;;;16.70;14.27;;;3.20;97.20;;;;;;1727361;28;20208;-71
2023/01/27 09:59:19;;;;;;;15.10;13.50;;;3.10;97.20;;;;;;1721973;28;20255;-71
2023/01/27 10:00:20;;;;;;;16.83;14.05;;;3.10;97.20;;;;;;1726980;28;20208;-71
2023/01/27 10:01:20;;;;;;;16.65;13.88;;;3.10;97.20;;;;;;1727066;28;20216;-71
2023/01/27 10:02:24;;;;;;;16.77;13.90;;;3.10;97.20;;;;;;1727306;28;20204;-72
2023/01/27 10:03:32;;;;;;;15.02;12.75;;;3.10;97.20;;;;;;1727184;28;20208;-72
2023/01/27 10:04:39;;;;;;;15.32;13.73;;;3.10;97.20;;;;;;1727096;28;20254;-72
2023/01/27 10:05:48;;;;;;;18.30;14.57;;;3.10;97.20;;;;;;1727204;28;20211;-72
2023/01/27 10:07:05;;;;;;;14.95;13.13;;;3.10;97.20;;;;;;1727234;28;20204;-71
2023/01/27 10:08:20;;;;;;;14.68;12.48;;;3.10;97.20;;;;;;1726598;28;20212;-72
2023/01/27 10:09:35;;;;;;;20.63;14.20;;;3.10;97.20;;;;;;1724743;28;20223;-72
2023/01/27 10:10:40;;;;;;;15.95;13.70;;;3.10;97.20;;;;;;1727163;28;20220;-71
2023/01/27 10:11:41;;;;;;;15.20;13.60;;;3.10;97.20;;;;;;1727096;28;20204;-71
2023/01/27 10:12:45;;;;;;;19.08;14.73;;;3.10;97.20;;;;;;1725852;28;20204;-71
2023/01/27 10:13:50;;;;;;;19.08;15.32;;;3.10;97.20;;;;;;1720483;28;20193;-72
2023/01/27 10:14:50;;;;;;;19.20;15.45;;;3.20;97.20;;;;;;1727082;28;20675;-71
2023/01/27 10:15:55;;;;;;;18.17;13.23;;;3.20;97.20;;;;;;1727330;28;20223;-72
2023/01/27 10:17:00;;;;;;;17.10;14.88;;;3.20;97.20;;;;;;1727183;28;20252;-71
2023/01/27 10:18:05;;;;;;;19.73;14.95;;;3.20;97.20;;;;;;1726737;28;20208;-71
2023/01/27 10:19:07;;;;;;;20.02;15.95;;;3.10;97.20;;;;;;1726906;28;20260;-71
2023/01/27 10:20:12;;;;;;;18.13;15.60;;;3.10;97.20;;;;;;1727095;28;20207;-71
2023/01/27 10:21:13;;;;;;;20.85;17.08;;;3.10;97.20;;;;;;1727112;28;20635;-72
2023/01/27 10:22:15;;;;;;;25.52;19.52;;;3.10;97.20;;;;;;1727286;28;20689;-71
2023/01/27 10:23:21;;;;;;;22.70;18.00;;;3.10;97.20;;;;;;1727183;28;20205;-71
2023/01/27 10:24:21;;;;;;;23.45;17.92;;;3.10;97.20;;;;;;1727196;28;20320;-72
2023/01/27 10:25:29;;;;;;;22.48;17.10;;;3.10;97.20;;;;;;1727127;28;20232;-72
2023/01/27 10:26:26;;;;;;;23.20;17.10;;;3.10;97.20;;;;;;1727158;28;20197;-71
2023/01/27 10:27:22;;;;;;;23.33;17.35;;;3.10;97.20;;;;;;1726483;28;20581;-71
2023/01/27 10:28:19;;;;;;;21.80;17.33;;;3.20;97.20;;;;;;1723830;28;20560;-71
2023/01/27 10:29:20;;;;;;;22.45;17.80;;;3.10;97.20;;;;;;1720312;28;20198;-72
2023/01/27 10:30:14;;;;;;;20.02;17.23;;;3.10;97.20;;;;;;1720082;28;20586;-71
2023/01/27 10:31:11;;;;;;;22.25;18.60;;;3.10;97.20;;;;;;1722305;28;20565;-72
2023/01/27 10:32:07;;;;;;;22.33;17.63;;;3.20;97.20;;;;;;1727228;28;20581;-71
2023/01/27 10:33:07;;;;;;;23.50;18.50;;;3.20;97.20;;;;;;1727134;28;20212;-71
2023/01/27 10:34:04;;;;;;;21.70;17.98;;;3.20;97.20;;;;;;1727136;28;20235;-72
2023/01/27 10:35:08;;;;;;;22.45;17.70;;;3.20;97.20;;;;;;1727137;28;20203;-71
2023/01/27 10:36:06;;;;;;;23.08;17.92;;;3.20;97.20;;;;;;1727066;28;20744;-71
2023/01/27 10:37:12;;;;;;;24.88;18.10;;;3.20;97.20;;;;;;1726940;28;20204;-71